Time;durP1;ratioP1;P1;durP2;ratioP2;P2;SDS_P1;SDS_P2;PMS_P1;PMS_P2;Temp;Humidity;BMP_temperature;BMP_pressure;BME280_temperature;BME280_humidity;BME280_pressure;Samples;Min_cycle;Max_cycle;Signal;HPM_P1;HPM_P2
2022/03/12 00:00:49;;;;;;;20.17;10.93;;;2.30;81.70;;;;;;5054963;28;20040;-73
2022/03/12 00:03:15;;;;;;;22.58;10.98;;;2.30;83.10;;;;;;5054608;28;20075;-72
2022/03/12 00:06:06;;;;;;;24.50;11.55;;;2.30;83.90;;;;;;5054340;28;20063;-72
2022/03/12 00:08:44;;;;;;;15.15;9.57;;;2.30;83.80;;;;;;5052616;28;20069;-71
2022/03/12 00:11:15;;;;;;;18.42;10.70;;;2.30;84.00;;;;;;5045013;28;20028;-71
2022/03/12 00:13:42;;;;;;;17.17;10.23;;;2.30;84.40;;;;;;5053438;28;20040;-71
2022/03/12 00:16:12;;;;;;;19.45;11.25;;;2.30;85.10;;;;;;5052766;28;20033;-71
2022/03/12 00:18:38;;;;;;;17.90;10.18;;;2.30;85.60;;;;;;5051707;28;20047;-72
2022/03/12 00:21:04;;;;;;;19.73;10.32;;;2.30;85.80;;;;;;5052183;28;20044;-72
2022/03/12 00:23:30;;;;;;;18.45;11.10;;;2.30;86.20;;;;;;5051252;28;20768;-71
2022/03/12 00:25:58;;;;;;;18.45;10.55;;;2.30;86.70;;;;;;5052189;28;20024;-72
2022/03/12 00:28:25;;;;;;;19.50;10.75;;;2.30;86.60;;;;;;5050920;28;20036;-70
2022/03/12 00:30:52;;;;;;;18.40;9.90;;;2.30;86.10;;;;;;5052319;28;20060;-71
2022/03/12 00:33:21;;;;;;;17.30;10.25;;;2.30;86.00;;;;;;5052002;28;20029;-71
2022/03/12 00:35:51;;;;;;;16.90;9.80;;;2.30;86.50;;;;;;5051504;28;20037;-72
2022/03/12 00:38:17;;;;;;;;;;;2.30;86.70;;;;;;5052668;28;20032;-72
2022/03/12 00:40:43;;;;;;;17.17;9.80;;;2.40;86.80;;;;;;5051173;28;19996;-72
2022/03/12 00:43:10;;;;;;;17.25;10.35;;;2.40;86.60;;;;;;5051899;28;20470;-71
2022/03/12 00:45:37;;;;;;;20.95;10.18;;;2.40;85.80;;;;;;5051082;28;20032;-72
2022/03/12 00:48:04;;;;;;;18.63;10.43;;;2.50;85.70;;;;;;5052226;28;20033;-72
2022/03/12 00:50:29;;;;;;;17.08;10.57;;;2.50;86.30;;;;;;5051361;28;20033;-72
2022/03/12 00:52:55;;;;;;;17.42;10.30;;;2.50;86.60;;;;;;5052138;28;20475;-72
2022/03/12 00:55:21;;;;;;;18.80;9.90;;;2.50;86.00;;;;;;5051693;28;20111;-71
2022/03/12 00:57:46;;;;;;;17.42;9.98;;;2.60;86.30;;;;;;5051244;28;20079;-71
2022/03/12 01:00:19;;;;;;;16.95;9.48;;;2.60;86.10;;;;;;5051531;28;20064;-71
2022/03/12 01:02:46;;;;;;;16.85;9.57;;;2.60;86.10;;;;;;5052059;28;20021;-71
2022/03/12 01:05:15;;;;;;;16.70;10.65;;;2.60;86.40;;;;;;5052066;28;20060;-71
2022/03/12 01:07:41;;;;;;;17.23;10.10;;;2.50;86.60;;;;;;5048111;28;20025;-71
2022/03/12 01:10:07;;;;;;;16.50;10.15;;;2.40;87.20;;;;;;5051322;28;20504;-72
2022/03/12 01:12:33;;;;;;;16.88;9.75;;;2.40;88.10;;;;;;5050940;28;20500;-71
2022/03/12 01:14:58;;;;;;;18.08;10.57;;;2.40;88.60;;;;;;5051898;28;20029;-71
2022/03/12 01:17:24;;;;;;;18.10;9.80;;;2.40;86.20;;;;;;5051393;28;20364;-70
2022/03/12 01:19:50;;;;;;;16.50;9.38;;;2.40;85.70;;;;;;5052565;28;20032;-72
2022/03/12 01:22:19;;;;;;;21.63;10.50;;;2.60;81.90;;;;;;5052951;28;20445;-71
2022/03/12 01:24:46;;;;;;;16.48;9.85;;;2.80;79.40;;;;;;5052218;28;20021;-72
2022/03/12 01:27:14;;;;;;;16.73;9.70;;;2.90;77.90;;;;;;5052409;28;20440;-72
2022/03/12 01:29:39;;;;;;;15.80;9.27;;;3.00;78.90;;;;;;5051730;28;20075;-72
2022/03/12 01:32:05;;;;;;;16.45;9.75;;;3.00;77.30;;;;;;5052769;28;20417;-72
2022/03/12 01:34:31;;;;;;;17.75;10.35;;;3.10;76.20;;;;;;5051967;28;20064;-72
2022/03/12 01:36:57;;;;;;;21.83;8.98;;;3.20;74.30;;;;;;5052615;28;20124;-72
2022/03/12 01:39:22;;;;;;;16.08;9.18;;;3.20;73.70;;;;;;5052140;28;20029;-71
2022/03/12 01:41:48;;;;;;;15.57;9.65;;;3.30;73.60;;;;;;5051595;28;20032;-72
2022/03/12 01:44:15;;;;;;;15.52;9.05;;;3.30;73.40;;;;;;5051812;28;20086;-72
2022/03/12 01:46:46;;;;;;;14.35;9.82;;;3.30;73.10;;;;;;5050082;28;20103;-72
2022/03/12 01:49:16;;;;;;;15.70;9.32;;;3.30;73.30;;;;;;5051747;28;20168;-71
2022/03/12 01:51:44;;;;;;;17.23;9.40;;;3.30;75.50;;;;;;5051299;28;20029;-71
2022/03/12 01:54:10;;;;;;;19.27;10.30;;;3.30;77.40;;;;;;5051508;28;20086;-71
2022/03/12 01:56:38;;;;;;;20.27;9.27;;;3.20;78.60;;;;;;5051037;28;20060;-72
2022/03/12 01:59:05;;;;;;;15.82;9.57;;;3.20;78.70;;;;;;5051435;28;20068;-72
2022/03/12 02:01:32;;;;;;;14.63;9.27;;;3.10;79.60;;;;;;5051989;28;20037;-71
2022/03/12 02:04:00;;;;;;;17.00;9.27;;;3.00;79.60;;;;;;5052935;28;20037;-72
2022/03/12 02:06:27;;;;;;;20.00;10.55;;;3.00;80.10;;;;;;5051423;28;20481;-71
2022/03/12 02:08:58;;;;;;;16.50;9.15;;;2.90;83.10;;;;;;5051320;28;20045;-71
2022/03/12 02:11:28;;;;;;;18.08;9.85;;;2.90;82.00;;;;;;5051888;28;20466;-70
2022/03/12 02:14:07;;;;;;;15.02;9.48;;;2.90;81.20;;;;;;5052048;28;20025;-71
2022/03/12 02:16:34;;;;;;;15.68;8.93;;;3.00;78.80;;;;;;5051168;28;20060;-71
2022/03/12 02:19:00;;;;;;;20.33;9.65;;;3.00;76.70;;;;;;5052189;28;20488;-71
2022/03/12 02:21:38;;;;;;;20.17;9.55;;;3.00;75.10;;;;;;5051320;28;20029;-71
2022/03/12 02:24:16;;;;;;;17.45;8.88;;;3.10;74.00;;;;;;5052300;28;20040;-72
2022/03/12 02:26:44;;;;;;;17.63;8.88;;;3.10;73.50;;;;;;5050852;28;20390;-72
2022/03/12 02:29:12;;;;;;;14.98;8.88;;;3.10;73.30;;;;;;5051497;28;20424;-72
2022/03/12 02:31:45;;;;;;;15.48;8.85;;;3.10;73.20;;;;;;5050854;28;20089;-72
2022/03/12 02:34:12;;;;;;;14.68;8.52;;;3.20;73.10;;;;;;5052110;28;20033;-72
2022/03/12 02:36:40;;;;;;;17.25;9.30;;;3.10;73.40;;;;;;5051032;28;20501;-72
2022/03/12 02:39:07;;;;;;;18.42;9.00;;;3.10;73.20;;;;;;5051927;28;20029;-72
2022/03/12 02:41:33;;;;;;;14.55;9.25;;;3.10;73.50;;;;;;5050589;28;20412;-71
2022/03/12 02:43:59;;;;;;;20.20;8.88;;;3.10;73.30;;;;;;5051616;28;20056;-72
2022/03/12 02:46:29;;;;;;;14.55;8.75;;;3.20;72.70;;;;;;5051070;28;20049;-72
2022/03/12 02:48:55;;;;;;;16.77;9.40;;;3.10;72.70;;;;;;5051776;28;20021;-71
2022/03/12 02:51:22;;;;;;;19.33;9.18;;;3.20;72.90;;;;;;5051380;28;20040;-72
2022/03/12 02:53:53;;;;;;;14.13;8.90;;;3.10;73.50;;;;;;5050840;28;20045;-72
2022/03/12 02:56:19;;;;;;;17.45;9.40;;;3.10;74.20;;;;;;5051293;28;20374;-71
2022/03/12 02:58:45;;;;;;;15.25;9.23;;;3.10;75.10;;;;;;5050855;28;20045;-72
2022/03/12 03:01:14;;;;;;;14.88;8.85;;;3.00;76.00;;;;;;5051711;28;20057;-71
2022/03/12 03:03:44;;;;;;;17.60;9.20;;;2.90;76.40;;;;;;5050674;28;20032;-72
2022/03/12 03:06:09;;;;;;;16.75;9.15;;;2.90;76.90;;;;;;5052781;28;20470;-72
2022/03/12 03:08:37;;;;;;;18.77;9.85;;;2.80;77.90;;;;;;5054500;28;20148;-72
2022/03/12 03:11:16;;;;;;;16.52;9.00;;;2.80;79.00;;;;;;5055578;28;20029;-72
2022/03/12 03:13:44;;;;;;;14.18;8.43;;;2.80;79.70;;;;;;5054690;28;20028;-71
2022/03/12 03:16:11;;;;;;;17.13;9.50;;;2.70;80.50;;;;;;5055248;28;20116;-72
2022/03/12 03:18:39;;;;;;;19.83;9.40;;;2.70;81.70;;;;;;5054776;28;20072;-71
2022/03/12 03:21:12;;;;;;;15.20;9.38;;;2.70;82.10;;;;;;5055262;28;20561;-72
2022/03/12 03:23:38;;;;;;;15.43;8.98;;;2.60;82.60;;;;;;5054663;28;20029;-71
2022/03/12 03:26:05;;;;;;;17.38;9.05;;;2.60;82.70;;;;;;5055071;28;20044;-71
2022/03/12 03:28:31;;;;;;;16.30;9.35;;;2.60;82.50;;;;;;5053768;28;20047;-70
2022/03/12 03:30:56;;;;;;;16.25;8.88;;;2.70;81.70;;;;;;5055117;28;20029;-71
2022/03/12 03:33:24;;;;;;;18.50;8.93;;;2.70;81.20;;;;;;5055191;28;20027;-72
2022/03/12 03:35:50;;;;;;;16.75;9.43;;;2.60;81.20;;;;;;5054165;28;20557;-72
2022/03/12 03:38:16;;;;;;;16.50;9.30;;;2.60;81.50;;;;;;5054971;28;20120;-72
2022/03/12 03:40:42;;;;;;;13.98;8.73;;;2.60;81.30;;;;;;5054100;28;20041;-72
2022/03/12 03:43:14;;;;;;;14.60;8.70;;;2.60;81.40;;;;;;5054901;28;20111;-72
2022/03/12 03:45:45;;;;;;;18.40;9.18;;;2.60;81.50;;;;;;5053492;28;20482;-72
2022/03/12 03:48:13;;;;;;;20.50;9.82;;;2.50;82.30;;;;;;5054816;28;20025;-72
2022/03/12 03:50:40;;;;;;;14.75;9.02;;;2.50;83.90;;;;;;5054142;28;20104;-71
2022/03/12 03:53:05;;;;;;;16.13;9.60;;;2.60;83.00;;;;;;5054485;28;20021;-71
2022/03/12 03:55:32;;;;;;;17.55;9.25;;;2.50;82.10;;;;;;5053487;28;20036;-70
2022/03/12 03:57:59;;;;;;;19.23;9.38;;;2.50;82.20;;;;;;5054580;28;20079;-72
2022/03/12 04:00:25;;;;;;;18.77;8.93;;;2.50;81.10;;;;;;5053588;28;20049;-72
2022/03/12 04:03:02;;;;;;;24.15;9.80;;;2.50;80.40;;;;;;5052405;28;20025;-71
2022/03/12 04:05:30;;;;;;;22.55;12.43;;;2.50;79.50;;;;;;5053246;28;20032;-70
2022/03/12 04:07:56;;;;;;;31.90;16.00;;;2.50;79.60;;;;;;5052678;28;20470;-70
2022/03/12 04:10:21;;;;;;;25.13;14.18;;;2.50;81.20;;;;;;5053481;28;20120;-70
2022/03/12 04:12:47;;;;;;;25.10;12.02;;;2.50;81.90;;;;;;5052194;28;20033;-71
2022/03/12 04:15:13;;;;;;;18.25;10.73;;;2.50;83.70;;;;;;5052609;28;20406;-72
2022/03/12 04:17:43;;;;;;;17.85;10.00;;;2.40;84.90;;;;;;5051936;28;20033;-70
2022/03/12 04:20:09;;;;;;;19.45;10.15;;;2.30;86.10;;;;;;5052941;28;20552;-71
2022/03/12 04:22:38;;;;;;;19.00;10.88;;;2.30;87.00;;;;;;5052346;28;20463;-71
2022/03/12 04:25:05;;;;;;;18.83;10.48;;;2.20;87.90;;;;;;5053031;28;20377;-70
2022/03/12 04:27:31;;;;;;;16.60;9.82;;;2.10;88.90;;;;;;5052371;28;20110;-70
2022/03/12 04:29:56;;;;;;;15.30;9.43;;;2.10;89.70;;;;;;5052431;28;20493;-74
2022/03/12 04:32:22;;;;;;;16.17;9.98;;;2.00;90.40;;;;;;5052721;28;20489;-72
2022/03/12 04:34:47;;;;;;;16.08;9.50;;;2.00;91.00;;;;;;5051834;28;20120;-74
2022/03/12 04:37:13;;;;;;;15.80;9.27;;;1.90;91.10;;;;;;5052966;28;20114;-73
2022/03/12 04:39:39;;;;;;;18.05;9.45;;;1.90;90.90;;;;;;5052926;28;20037;-71
2022/03/12 04:42:05;;;;;;;15.10;8.73;;;1.80;90.90;;;;;;5052720;28;20438;-70
2022/03/12 04:44:31;;;;;;;15.13;8.40;;;1.70;91.00;;;;;;5052151;28;20028;-70
2022/03/12 04:46:56;;;;;;;16.55;8.98;;;1.70;91.10;;;;;;5051454;28;20428;-69
2022/03/12 04:49:22;;;;;;;14.98;7.90;;;1.70;91.00;;;;;;5052448;28;20071;-70
2022/03/12 04:51:48;;;;;;;17.52;8.93;;;1.70;91.00;;;;;;5051896;28;20078;-70
2022/03/12 04:54:13;;;;;;;18.20;8.95;;;1.70;91.20;;;;;;5052664;28;20021;-70
2022/03/12 04:56:39;;;;;;;16.50;9.40;;;1.70;91.00;;;;;;5051511;28;20466;-71
2022/03/12 04:59:04;;;;;;;15.32;8.77;;;1.70;91.00;;;;;;5013239;28;1117296;-71
2022/03/12 05:01:30;;;;;;;17.35;9.18;;;1.80;91.00;;;;;;5053004;28;20430;-70
2022/03/12 05:03:56;;;;;;;14.18;9.00;;;1.90;90.60;;;;;;5053040;28;20025;-71
2022/03/12 05:06:23;;;;;;;13.15;8.18;;;1.90;89.50;;;;;;5053326;28;20059;-71
2022/03/12 05:08:49;;;;;;;20.45;8.70;;;2.00;88.60;;;;;;5052235;28;20068;-71
2022/03/12 05:11:15;;;;;;;15.15;8.82;;;2.00;88.30;;;;;;5053334;28;20516;-72
2022/03/12 05:13:40;;;;;;;14.55;8.23;;;2.00;88.80;;;;;;5052390;28;20029;-72
2022/03/12 05:16:06;;;;;;;17.63;9.32;;;2.10;88.90;;;;;;5052869;28;20052;-71
2022/03/12 05:18:40;;;;;;;17.50;8.90;;;2.10;89.70;;;;;;5052331;28;20132;-70
2022/03/12 05:21:06;;;;;;;20.02;9.20;;;2.10;89.90;;;;;;5053207;28;20082;-71
2022/03/12 05:23:33;;;;;;;14.93;8.40;;;2.20;90.10;;;;;;5052225;28;20064;-71
2022/03/12 05:25:58;;;;;;;15.30;8.43;;;2.20;89.80;;;;;;5052628;28;20458;-70
2022/03/12 05:28:30;;;;;;;17.27;9.27;;;2.20;89.50;;;;;;5051905;28;20087;-71
2022/03/12 05:30:59;;;;;;;17.27;9.35;;;2.20;89.80;;;;;;5052197;28;20039;-70
2022/03/12 05:33:26;;;;;;;19.77;9.05;;;2.30;88.00;;;;;;5052779;28;20021;-72
2022/03/12 05:35:54;;;;;;;14.68;8.60;;;2.30;86.80;;;;;;5051725;28;20017;-71
2022/03/12 05:38:20;;;;;;;15.60;9.27;;;2.40;86.50;;;;;;5052128;28;20060;-71
2022/03/12 05:40:48;;;;;;;15.55;8.52;;;2.40;86.20;;;;;;5051785;28;20025;-71
2022/03/12 05:43:15;;;;;;;16.08;8.65;;;2.40;85.40;;;;;;5052643;28;20029;-71
2022/03/12 05:45:45;;;;;;;17.75;9.23;;;2.50;85.10;;;;;;5035808;28;20087;-71
2022/03/12 05:48:13;;;;;;;14.52;8.95;;;2.50;84.50;;;;;;5051703;28;20021;-71
2022/03/12 05:50:39;;;;;;;14.93;8.73;;;2.50;84.10;;;;;;5050424;28;20111;-71
2022/03/12 05:53:09;;;;;;;14.35;8.98;;;2.50;83.70;;;;;;5050986;28;20028;-72
2022/03/12 05:55:39;;;;;;;15.95;8.73;;;2.50;83.50;;;;;;5048333;28;20029;-70
2022/03/12 05:58:11;;;;;;;14.07;8.30;;;2.50;82.80;;;;;;5051022;28;20035;-71
2022/03/12 06:00:39;;;;;;;14.70;8.00;;;2.50;82.10;;;;;;5048569;28;20049;-73
2022/03/12 06:03:10;;;;;;;13.27;8.40;;;2.50;80.40;;;;;;5050841;28;20187;-70
2022/03/12 06:05:43;;;;;;;14.70;7.68;;;2.50;78.30;;;;;;5050104;28;20040;-70
2022/03/12 06:08:21;;;;;;;12.13;7.93;;;2.60;78.10;;;;;;5051112;28;20028;-71
2022/03/12 06:10:54;;;;;;;16.00;8.18;;;2.60;77.60;;;;;;5049887;28;20049;-71
2022/03/12 06:13:23;;;;;;;19.73;9.45;;;2.60;76.50;;;;;;5049509;28;20051;-71
2022/03/12 06:15:55;;;;;;;15.68;8.35;;;2.70;75.70;;;;;;5048585;28;20461;-73
2022/03/12 06:18:22;;;;;;;19.33;8.27;;;2.70;75.70;;;;;;5050837;28;20025;-75
2022/03/12 06:20:48;;;;;;;19.92;8.63;;;2.80;75.90;;;;;;5049630;28;20029;-74
2022/03/12 06:23:14;;;;;;;14.65;9.32;;;2.80;77.00;;;;;;5050657;28;20849;-75
2022/03/12 06:25:40;;;;;;;15.50;8.68;;;2.80;77.80;;;;;;5049621;28;20540;-74
2022/03/12 06:28:06;;;;;;;18.00;9.05;;;2.90;77.80;;;;;;5050349;28;20060;-74
2022/03/12 06:30:32;;;;;;;12.98;8.25;;;2.90;78.30;;;;;;5050203;28;20470;-72
2022/03/12 06:32:58;;;;;;;17.58;8.93;;;2.90;77.40;;;;;;5049819;28;20040;-76
2022/03/12 06:35:26;;;;;;;14.70;8.30;;;3.00;76.80;;;;;;5050380;28;20458;-73
2022/03/12 06:37:52;;;;;;;14.68;8.07;;;3.00;75.80;;;;;;5049629;28;20040;-72
2022/03/12 06:40:18;;;;;;;20.25;7.97;;;3.10;74.30;;;;;;5050493;28;20044;-72
2022/03/12 06:42:47;;;;;;;15.05;7.78;;;3.20;73.80;;;;;;5049896;28;20020;-73
2022/03/12 06:45:16;;;;;;;13.95;7.95;;;3.30;75.10;;;;;;5050237;28;20033;-72
2022/03/12 06:47:44;;;;;;;16.03;8.67;;;3.30;75.60;;;;;;5049370;28;20036;-71
2022/03/12 06:50:12;;;;;;;13.20;8.25;;;3.30;75.60;;;;;;5050400;28;20496;-74
2022/03/12 06:52:43;;;;;;;15.50;8.65;;;3.40;75.50;;;;;;5049628;28;20055;-70
2022/03/12 06:55:10;;;;;;;14.13;8.10;;;3.40;75.00;;;;;;5049708;28;20017;-71
2022/03/12 06:57:37;;;;;;;13.65;8.48;;;3.40;74.60;;;;;;5047244;28;20098;-74
2022/03/12 07:00:05;;;;;;;16.00;8.75;;;3.50;74.50;;;;;;5049663;28;20045;-80
2022/03/12 07:02:31;;;;;;;12.90;7.97;;;3.50;74.30;;;;;;5050297;28;20024;-75
2022/03/12 07:04:56;;;;;;;14.15;8.68;;;3.60;73.80;;;;;;5049377;28;20025;-77
2022/03/12 07:07:22;;;;;;;21.45;8.68;;;3.70;73.00;;;;;;5049567;28;20031;-86
2022/03/12 07:09:48;;;;;;;13.25;7.78;;;3.70;72.30;;;;;;5051002;28;20059;-77
2022/03/12 07:12:13;;;;;;;17.00;9.45;;;3.80;72.00;;;;;;5051673;28;20077;-82
2022/03/12 07:14:39;;;;;;;15.00;8.60;;;3.90;71.00;;;;;;5050322;28;20415;-86
2022/03/12 07:17:05;;;;;;;12.68;8.48;;;3.90;71.00;;;;;;5051671;28;20363;-83
2022/03/12 07:19:31;;;;;;;13.93;8.18;;;4.00;71.00;;;;;;5050248;28;20462;-86
2022/03/12 07:21:57;;;;;;;13.65;7.93;;;4.00;71.20;;;;;;5050862;28;20355;-83
2022/03/12 07:24:23;;;;;;;15.18;9.18;;;4.10;71.40;;;;;;5051532;28;20032;-78
2022/03/12 07:26:48;;;;;;;19.15;9.18;;;4.20;70.40;;;;;;5050828;28;20029;-79
2022/03/12 07:29:14;;;;;;;13.18;8.65;;;4.30;69.50;;;;;;5051874;28;20382;-86
2022/03/12 07:31:40;;;;;;;13.23;9.02;;;4.40;69.10;;;;;;5051029;28;20048;-81
2022/03/12 07:34:07;;;;;;;16.60;9.15;;;4.40;68.40;;;;;;5051814;28;20468;-81
2022/03/12 07:36:33;;;;;;;16.52;9.48;;;4.60;68.00;;;;;;5051168;28;20021;-75
2022/03/12 07:39:02;;;;;;;13.48;8.25;;;4.60;67.80;;;;;;5052984;28;20060;-80
2022/03/12 07:41:28;;;;;;;14.55;8.88;;;4.70;67.70;;;;;;5050378;28;20075;-84
2022/03/12 07:43:54;;;;;;;16.08;8.65;;;4.80;67.10;;;;;;5054258;28;20079;-83
2022/03/12 07:46:21;;;;;;;15.55;8.80;;;4.90;67.30;;;;;;5051744;28;20017;-82
2022/03/12 07:48:48;;;;;;;17.50;9.73;;;4.90;66.50;;;;;;5051315;28;20032;-79
2022/03/12 07:51:14;;;;;;;14.30;9.23;;;5.10;66.10;;;;;;5051214;28;20107;-73
2022/03/12 07:53:40;;;;;;;14.63;8.60;;;5.10;65.30;;;;;;5054416;28;20103;-77
2022/03/12 07:56:07;;;;;;;17.60;8.93;;;5.20;65.30;;;;;;5054158;28;20021;-87
2022/03/12 07:58:33;;;;;;;18.40;10.02;;;5.30;65.10;;;;;;5061184;28;20039;-69
2022/03/12 08:01:00;;;;;;;18.13;8.82;;;5.30;65.10;;;;;;5055313;28;20036;-82
2022/03/12 08:03:26;;;;;;;15.20;9.18;;;5.40;64.40;;;;;;5055116;28;20043;-80
2022/03/12 08:05:52;;;;;;;14.63;8.77;;;5.40;64.20;;;;;;5053759;28;20032;-80
2022/03/12 08:08:19;;;;;;;17.15;9.30;;;5.50;64.50;;;;;;5054404;28;20078;-72
2022/03/12 08:13:29;;;;;;;17.65;8.65;;;5.60;64.40;;;;;;5053433;28;20060;-73
2022/03/12 08:15:55;;;;;;;15.35;9.68;;;5.60;64.30;;;;;;5053314;28;20025;-79
2022/03/12 08:18:22;;;;;;;15.52;9.48;;;5.80;63.50;;;;;;5054408;28;20158;-73
2022/03/12 08:20:49;;;;;;;19.23;10.77;;;5.90;63.40;;;;;;5053295;28;20045;-70
2022/03/12 08:23:15;;;;;;;18.38;9.98;;;6.10;62.80;;;;;;5053857;28;20033;-73
2022/03/12 08:25:41;;;;;;;17.38;10.23;;;6.10;62.80;;;;;;5055298;28;20029;-77
2022/03/12 08:28:07;;;;;;;13.55;8.75;;;6.20;62.80;;;;;;5058641;28;20029;-83
2022/03/12 08:30:34;;;;;;;17.33;9.98;;;6.30;63.20;;;;;;5058078;28;20484;-75
2022/03/12 08:33:00;;;;;;;18.02;10.48;;;6.40;63.20;;;;;;5053995;28;20079;-75
2022/03/12 08:35:26;;;;;;;18.92;11.00;;;6.50;62.90;;;;;;5053852;28;20060;-75
2022/03/12 08:37:53;;;;;;;17.88;10.90;;;6.60;62.70;;;;;;5053183;28;20130;-73
2022/03/12 08:40:18;;;;;;;18.23;10.60;;;6.80;62.60;;;;;;5052457;28;20508;-71
2022/03/12 08:42:44;;;;;;;17.95;10.98;;;7.00;62.60;;;;;;5051211;28;20032;-76
2022/03/12 08:45:11;;;;;;;22.23;11.27;;;7.10;62.10;;;;;;5055168;28;20064;-75
2022/03/12 08:47:38;;;;;;;21.15;11.13;;;7.30;61.70;;;;;;5052053;28;20425;-72
2022/03/12 08:50:08;;;;;;;18.25;11.52;;;7.40;61.90;;;;;;5053539;28;20033;-74
2022/03/12 08:52:35;;;;;;;22.70;11.53;;;7.70;60.70;;;;;;5053245;28;20390;-78
2022/03/12 08:55:01;;;;;;;21.63;11.48;;;7.80;60.80;;;;;;5052668;28;20036;-76
2022/03/12 08:57:26;;;;;;;17.92;11.32;;;7.90;60.40;;;;;;5053138;28;20168;-79
2022/03/12 08:59:52;;;;;;;17.73;11.73;;;8.10;60.00;;;;;;5051470;28;20064;-75
2022/03/12 09:02:18;;;;;;;19.67;12.23;;;8.20;60.10;;;;;;5052495;28;20107;-73
2022/03/12 09:04:43;;;;;;;17.95;11.32;;;8.30;60.10;;;;;;5051743;28;20426;-77
2022/03/12 09:07:09;;;;;;;21.80;11.65;;;8.50;59.70;;;;;;5052871;28;20098;-77
2022/03/12 09:09:35;;;;;;;20.55;11.52;;;8.60;58.80;;;;;;5053680;28;20037;-78
2022/03/12 09:12:01;;;;;;;19.33;11.20;;;9.00;63.70;;;;;;5052022;28;20124;-78
2022/03/12 09:14:28;;;;;;;21.17;11.15;;;8.90;56.70;;;;;;5053047;28;20029;-74
2022/03/12 09:16:54;;;;;;;20.05;11.45;;;9.00;56.60;;;;;;5052355;28;20048;-76
2022/03/12 09:19:20;;;;;;;18.15;10.70;;;9.10;57.00;;;;;;5053919;28;20127;-75
2022/03/12 09:21:46;;;;;;;19.25;10.73;;;9.10;56.30;;;;;;5051720;28;20032;-76
2022/03/12 09:24:12;;;;;;;17.58;11.25;;;9.20;56.30;;;;;;5054106;28;20112;-76
2022/03/12 09:26:37;;;;;;;20.08;11.48;;;9.30;55.90;;;;;;5051604;28;20108;-73
2022/03/12 09:29:03;;;;;;;19.63;11.68;;;9.40;55.30;;;;;;5052568;28;20104;-76
2022/03/12 09:31:29;;;;;;;20.85;12.32;;;9.50;55.10;;;;;;5051594;28;20521;-77
2022/03/12 09:33:55;;;;;;;21.13;11.93;;;9.60;54.60;;;;;;5050287;28;20108;-76
2022/03/12 09:36:20;;;;;;;17.17;11.07;;;9.70;54.90;;;;;;5051763;28;20025;-73
2022/03/12 09:38:46;;;;;;;19.92;11.73;;;9.90;55.10;;;;;;5050911;28;20055;-71
2022/03/12 09:41:13;;;;;;;19.77;11.68;;;9.90;54.50;;;;;;5050799;28;20042;-71
2022/03/12 09:43:41;;;;;;;21.33;12.68;;;10.00;54.40;;;;;;5051162;28;20025;-68
2022/03/12 09:46:07;;;;;;;23.70;12.00;;;10.10;54.10;;;;;;5052331;28;20506;-72
2022/03/12 09:48:32;;;;;;;19.13;12.90;;;10.20;54.20;;;;;;5051616;28;20124;-72
2022/03/12 09:50:58;;;;;;;19.70;12.80;;;10.40;54.20;;;;;;5050362;28;20090;-71
2022/03/12 09:53:24;;;;;;;17.58;12.02;;;10.50;53.30;;;;;;5051432;28;20029;-70
2022/03/12 09:55:50;;;;;;;23.50;13.38;;;10.50;53.70;;;;;;5050940;28;20409;-83
2022/03/12 09:58:15;;;;;;;22.92;12.85;;;10.60;53.60;;;;;;5051533;28;20033;-71
2022/03/12 10:00:41;;;;;;;18.95;12.05;;;10.90;56.20;;;;;;5048184;28;20051;-67
2022/03/12 10:03:06;;;;;;;22.30;12.27;;;10.90;60.60;;;;;;5050204;28;20112;-67
2022/03/12 10:05:34;;;;;;;18.20;12.75;;;11.00;71.60;;;;;;5050467;28;20072;-73
2022/03/12 10:08:00;;;;;;;23.60;14.05;;;11.00;53.20;;;;;;5049777;28;20025;-73
2022/03/12 10:10:26;;;;;;;22.02;13.38;;;11.10;53.00;;;;;;5050217;28;20037;-70
2022/03/12 10:12:52;;;;;;;20.40;13.25;;;11.20;52.70;;;;;;5049800;28;20022;-68
2022/03/12 10:15:19;;;;;;;19.65;12.65;;;11.30;52.20;;;;;;5049723;28;20040;-67
2022/03/12 10:17:46;;;;;;;20.90;12.70;;;11.40;52.30;;;;;;5048467;28;20028;-68
2022/03/12 10:20:12;;;;;;;21.60;12.68;;;11.50;52.60;;;;;;5050825;28;20097;-67
2022/03/12 10:22:38;;;;;;;23.67;13.88;;;11.60;52.80;;;;;;5050369;28;20033;-68
2022/03/12 10:25:06;;;;;;;19.27;12.70;;;11.80;52.30;;;;;;5054503;28;20099;-71
2022/03/12 10:27:33;;;;;;;19.55;13.05;;;11.90;52.10;;;;;;5050485;28;20099;-70
2022/03/12 10:29:59;;;;;;;24.60;13.77;;;12.00;51.90;;;;;;5049221;28;20426;-75
2022/03/12 10:32:26;;;;;;;23.10;13.20;;;12.00;52.10;;;;;;5050713;28;20111;-77
2022/03/12 10:34:55;;;;;;;22.52;14.88;;;12.10;51.60;;;;;;5049483;28;20029;-75
2022/03/12 10:37:22;;;;;;;22.95;15.18;;;12.20;51.50;;;;;;5050451;28;20028;-76
2022/03/12 10:39:59;;;;;;;22.50;13.73;;;12.20;50.80;;;;;;5049221;28;20033;-78
2022/03/12 10:42:24;;;;;;;30.52;14.65;;;12.20;51.50;;;;;;5047964;28;20029;-70
2022/03/12 10:44:51;;;;;;;21.42;13.18;;;12.10;51.90;;;;;;5047536;28;20028;-71
2022/03/12 10:47:21;;;;;;;19.35;12.93;;;12.20;51.70;;;;;;5048469;28;20048;-75
2022/03/12 10:50:04;;;;;;;22.75;14.20;;;12.30;51.20;;;;;;5048538;28;20036;-72
2022/03/12 10:52:31;;;;;;;18.45;12.70;;;12.30;51.40;;;;;;5049023;28;20504;-73
2022/03/12 10:54:58;;;;;;;18.38;13.05;;;12.40;51.10;;;;;;5049349;28;20155;-78
2022/03/12 10:57:24;;;;;;;23.77;14.52;;;12.50;51.00;;;;;;5050843;28;20028;-72
2022/03/12 10:59:54;;;;;;;26.58;14.60;;;12.60;51.10;;;;;;5049160;28;20056;-67
2022/03/12 11:02:20;;;;;;;19.67;13.25;;;;;;;;;;5050064;28;20029;-74
2022/03/12 11:04:46;;;;;;;20.63;13.10;;;;;;;;;;5049026;28;20478;-74
2022/03/12 11:07:24;;;;;;;21.38;14.02;;;;;;;;;;5051201;28;20091;-73
2022/03/12 11:09:50;;;;;;;18.98;13.18;;;13.50;50.30;;;;;;5048849;28;20037;-71
2022/03/12 11:12:30;;;;;;;22.27;14.20;;;13.50;50.90;;;;;;5049661;28;20033;-71
2022/03/12 11:15:15;;;;;;;17.92;12.60;;;13.50;51.10;;;;;;5049758;28;20025;-71
2022/03/12 11:17:44;;;;;;;20.70;14.05;;;13.60;51.20;;;;;;5050315;28;20552;-69
2022/03/12 11:20:25;;;;;;;23.52;13.80;;;13.60;51.10;;;;;;5033520;28;20386;-69
2022/03/12 11:23:23;;;;;;;24.48;14.05;;;13.70;52.10;;;;;;5033782;28;20025;-70
2022/03/12 11:26:05;;;;;;;21.13;12.80;;;13.90;51.20;;;;;;5049345;28;20028;-70
2022/03/12 11:28:33;;;;;;;19.58;12.40;;;14.00;52.80;;;;;;5051879;28;20063;-71
2022/03/12 11:31:01;;;;;;;21.70;13.10;;;14.00;53.70;;;;;;5033512;28;20132;-72
2022/03/12 11:33:27;;;;;;;19.48;12.07;;;14.00;52.30;;;;;;5049574;28;20065;-72
2022/03/12 11:36:04;;;;;;;17.88;12.23;;;14.10;53.50;;;;;;5052626;28;20116;-72
2022/03/12 11:38:29;;;;;;;17.52;11.98;;;14.20;53.00;;;;;;5052668;28;20120;-72
2022/03/12 11:41:03;;;;;;;16.63;11.85;;;14.40;52.80;;;;;;5038641;28;20108;-71
2022/03/12 11:43:36;;;;;;;18.67;12.30;;;14.40;52.40;;;;;;5053813;28;20419;-72
2022/03/12 11:46:04;;;;;;;18.60;11.75;;;14.40;52.40;;;;;;5033468;28;20037;-71
2022/03/12 11:48:31;;;;;;;21.70;12.63;;;14.50;52.20;;;;;;5037093;28;20101;-71
2022/03/12 11:51:00;;;;;;;15.18;11.02;;;14.30;53.20;;;;;;5045668;28;20053;-71
2022/03/12 11:53:25;;;;;;;15.15;11.52;;;14.30;53.30;;;;;;5036133;28;20068;-72
2022/03/12 11:55:51;;;;;;;18.08;11.68;;;14.40;54.00;;;;;;5051828;28;20061;-69
2022/03/12 11:58:20;;;;;;;15.88;11.38;;;14.70;52.40;;;;;;5033508;28;20025;-69
2022/03/12 12:00:48;;;;;;;15.73;10.95;;;14.90;51.70;;;;;;5033493;28;20037;-69
2022/03/12 12:03:16;;;;;;;16.45;11.70;;;15.10;52.50;;;;;;5047606;28;20029;-70
2022/03/12 12:05:46;;;;;;;19.85;11.75;;;15.40;51.50;;;;;;5053625;28;20079;-71
2022/03/12 12:08:15;;;;;;;16.52;11.35;;;15.70;51.00;;;;;;5051709;28;20458;-71
2022/03/12 12:10:43;;;;;;;16.98;11.98;;;15.90;50.90;;;;;;5037315;28;20121;-71
2022/03/12 12:13:12;;;;;;;16.15;10.20;;;16.20;49.20;;;;;;5053684;28;20087;-71
2022/03/12 12:15:39;;;;;;;13.23;9.70;;;16.30;50.90;;;;;;5053515;28;20044;-71
2022/03/12 12:18:07;;;;;;;18.00;10.55;;;16.30;50.40;;;;;;5052642;28;20033;-71
2022/03/12 12:20:34;;;;;;;15.57;10.90;;;16.50;49.90;;;;;;5037226;28;20120;-71
2022/03/12 12:23:01;;;;;;;13.13;9.95;;;16.70;49.50;;;;;;5052363;28;20029;-71
2022/03/12 12:25:32;;;;;;;15.98;10.88;;;16.80;49.70;;;;;;5052439;28;20025;-71
2022/03/12 12:27:57;;;;;;;14.63;9.80;;;17.10;49.20;;;;;;5052455;28;20068;-71
2022/03/12 12:30:43;;;;;;;15.50;10.55;;;17.30;49.50;;;;;;5052161;28;20063;-71
2022/03/12 12:33:29;;;;;;;14.63;9.98;;;17.40;47.80;;;;;;5048480;28;20037;-71
2022/03/12 12:36:12;;;;;;;27.52;19.65;;;17.50;48.50;;;;;;5035611;28;20516;-71
2022/03/12 12:38:40;;;;;;;16.33;11.27;;;17.70;47.70;;;;;;5032480;28;20034;-71
2022/03/12 12:41:06;;;;;;;18.05;11.63;;;17.80;46.60;;;;;;5038965;28;20033;-73
2022/03/12 12:43:41;;;;;;;15.25;10.65;;;17.80;46.80;;;;;;5043415;28;20035;-71
2022/03/12 12:46:12;;;;;;;13.95;10.48;;;17.90;47.40;;;;;;5052229;28;20100;-71